Terminal Aerodrome Forecast
Issued by NWS

Home | Current Version | Previous Version | Text Only | Print | Product List | Glossary On
Versions: 1 2 3 4 5 6 7 8 9 10 11 12 13 14 15 16 17 18 19 20 21 22 23 24 25 26 27 28 29 30 31 32 33 34 35 36 37 38 39 40 41 42 43 44 45 46 47 48 49 50
000
FTUS45 KBOU 032338
TAFAPA
TAF
KAPA 032338Z 0400/0424 07007KT P6SM OVC012
      TEMPO 0401/0403 4SM -SN BR SCT006 OVC010
     FM040300 02012G20KT 2SM -SN BR BKN005 OVC008
      TEMPO 0403/0406 3/4SM -SN BLSN VV003
     FM040800 02008KT 2SM -SN BR SCT008 OVC015
     FM041600 VRB05KT P6SM SCT015 BKN025
     FM041900 12006KT P6SM SCT025 BKN040
     FM042300 14007KT P6SM SCT030 BKN060=

USA.gov is the U.S. government's official web portal to all federal, state and local government web resources and services.